sensor_id;sensor_type;location;lat;lon;timestamp;P1;durP1;ratioP1;P2;durP2;ratioP2
14092;SDS011;7123;49.468;10.992;2022-09-09T00:03:47;2.03;;;1.80;;
14092;SDS011;7123;49.468;10.992;2022-09-09T00:06:33;2.17;;;1.30;;
14092;SDS011;7123;49.468;10.992;2022-09-09T00:09:17;3.13;;;1.50;;
14092;SDS011;7123;49.468;10.992;2022-09-09T00:17:22;2.07;;;1.60;;
14092;SDS011;7123;49.468;10.992;2022-09-09T00:20:01;2.47;;;1.30;;
14092;SDS011;7123;49.468;10.992;2022-09-09T00:22:57;1.40;;;1.30;;
14092;SDS011;7123;49.468;10.992;2022-09-09T00:25:45;2.07;;;1.57;;
14092;SDS011;7123;49.468;10.992;2022-09-09T00:28:20;2.20;;;1.53;;
14092;SDS011;7123;49.468;10.992;2022-09-09T00:30:54;2.53;;;1.40;;
14092;SDS011;7123;49.468;10.992;2022-09-09T00:33:27;3.93;;;1.60;;
14092;SDS011;7123;49.468;10.992;2022-09-09T00:35:57;1.83;;;1.40;;
14092;SDS011;7123;49.468;10.992;2022-09-09T00:38:32;1.47;;;1.37;;
14092;SDS011;7123;49.468;10.992;2022-09-09T00:41:04;2.40;;;1.43;;
14092;SDS011;7123;49.468;10.992;2022-09-09T00:43:43;3.00;;;1.40;;
14092;SDS011;7123;49.468;10.992;2022-09-09T00:57:41;3.70;;;1.33;;
14092;SDS011;7123;49.468;10.992;2022-09-09T01:00:22;1.50;;;1.30;;
14092;SDS011;7123;49.468;10.992;2022-09-09T01:06:02;2.43;;;1.50;;
14092;SDS011;7123;49.468;10.992;2022-09-09T01:11:38;1.60;;;1.20;;
14092;SDS011;7123;49.468;10.992;2022-09-09T01:17:04;1.77;;;1.30;;
14092;SDS011;7123;49.468;10.992;2022-09-09T01:28:13;1.40;;;1.30;;
14092;SDS011;7123;49.468;10.992;2022-09-09T01:30:45;1.53;;;1.30;;
14092;SDS011;7123;49.468;10.992;2022-09-09T01:33:15;1.20;;;1.10;;
14092;SDS011;7123;49.468;10.992;2022-09-09T01:35:55;1.70;;;1.20;;
14092;SDS011;7123;49.468;10.992;2022-09-09T01:38:26;2.60;;;1.30;;
14092;SDS011;7123;49.468;10.992;2022-09-09T01:40:55;1.97;;;1.30;;
14092;SDS011;7123;49.468;10.992;2022-09-09T01:43:22;1.43;;;1.20;;
14092;SDS011;7123;49.468;10.992;2022-09-09T01:45:51;1.60;;;1.50;;
14092;SDS011;7123;49.468;10.992;2022-09-09T01:48:21;1.17;;;1.10;;
14092;SDS011;7123;49.468;10.992;2022-09-09T01:50:49;2.07;;;1.33;;
14092;SDS011;7123;49.468;10.992;2022-09-09T01:53:17;1.17;;;1.07;;
14092;SDS011;7123;49.468;10.992;2022-09-09T01:55:48;2.73;;;1.40;;
14092;SDS011;7123;49.468;10.992;2022-09-09T01:58:31;2.50;;;1.30;;
14092;SDS011;7123;49.468;10.992;2022-09-09T02:01:10;1.53;;;1.10;;
14092;SDS011;7123;49.468;10.992;2022-09-09T02:03:43;1.70;;;1.20;;
14092;SDS011;7123;49.468;10.992;2022-09-09T02:09:02;1.77;;;1.33;;
14092;SDS011;7123;49.468;10.992;2022-09-09T02:11:31;1.87;;;1.20;;
14092;SDS011;7123;49.468;10.992;2022-09-09T02:14:12;3.53;;;1.30;;
14092;SDS011;7123;49.468;10.992;2022-09-09T02:16:44;3.20;;;1.17;;
14092;SDS011;7123;49.468;10.992;2022-09-09T02:19:27;1.87;;;1.20;;
14092;SDS011;7123;49.468;10.992;2022-09-09T02:21:58;2.50;;;1.50;;
14092;SDS011;7123;49.468;10.992;2022-09-09T02:24:27;5.50;;;1.13;;
14092;SDS011;7123;49.468;10.992;2022-09-09T02:26:56;4.10;;;1.27;;
14092;SDS011;7123;49.468;10.992;2022-09-09T02:29:28;4.03;;;1.30;;
14092;SDS011;7123;49.468;10.992;2022-09-09T02:31:59;4.33;;;1.40;;
14092;SDS011;7123;49.468;10.992;2022-09-09T02:34:30;1.47;;;1.10;;
14092;SDS011;7123;49.468;10.992;2022-09-09T02:37:01;1.37;;;1.20;;
14092;SDS011;7123;49.468;10.992;2022-09-09T02:39:30;1.30;;;1.10;;
14092;SDS011;7123;49.468;10.992;2022-09-09T02:41:57;1.20;;;1.03;;
14092;SDS011;7123;49.468;10.992;2022-09-09T02:44:23;1.87;;;1.20;;
14092;SDS011;7123;49.468;10.992;2022-09-09T02:52:26;2.17;;;1.00;;
14092;SDS011;7123;49.468;10.992;2022-09-09T02:55:07;5.33;;;1.33;;
14092;SDS011;7123;49.468;10.992;2022-09-09T02:57:45;2.00;;;1.10;;
14092;SDS011;7123;49.468;10.992;2022-09-09T03:00:13;1.53;;;0.97;;
14092;SDS011;7123;49.468;10.992;2022-09-09T03:02:40;2.30;;;1.40;;
14092;SDS011;7123;49.468;10.992;2022-09-09T03:05:08;4.23;;;1.20;;
14092;SDS011;7123;49.468;10.992;2022-09-09T03:07:35;2.77;;;1.20;;
14092;SDS011;7123;49.468;10.992;2022-09-09T03:10:02;1.67;;;1.40;;
14092;SDS011;7123;49.468;10.992;2022-09-09T03:12:28;1.97;;;1.20;;
14092;SDS011;7123;49.468;10.992;2022-09-09T03:14:55;2.53;;;1.37;;
14092;SDS011;7123;49.468;10.992;2022-09-09T03:17:21;3.97;;;1.43;;
14092;SDS011;7123;49.468;10.992;2022-09-09T03:19:48;1.37;;;1.10;;
14092;SDS011;7123;49.468;10.992;2022-09-09T03:22:16;1.43;;;1.20;;
14092;SDS011;7123;49.468;10.992;2022-09-09T03:24:42;1.40;;;1.20;;
14092;SDS011;7123;49.468;10.992;2022-09-09T03:27:09;2.40;;;1.10;;
14092;SDS011;7123;49.468;10.992;2022-09-09T03:29:38;2.37;;;1.50;;
14092;SDS011;7123;49.468;10.992;2022-09-09T03:32:05;1.43;;;1.30;;
14092;SDS011;7123;49.468;10.992;2022-09-09T03:34:32;2.43;;;1.20;;
14092;SDS011;7123;49.468;10.992;2022-09-09T03:36:58;1.30;;;1.03;;
14092;SDS011;7123;49.468;10.992;2022-09-09T03:39:25;2.53;;;1.10;;
14092;SDS011;7123;49.468;10.992;2022-09-09T03:41:52;5.53;;;1.30;;
14092;SDS011;7123;49.468;10.992;2022-09-09T03:44:19;2.33;;;1.30;;
14092;SDS011;7123;49.468;10.992;2022-09-09T03:46:45;1.20;;;1.10;;
14092;SDS011;7123;49.468;10.992;2022-09-09T03:49:12;3.03;;;1.30;;
14092;SDS011;7123;49.468;10.992;2022-09-09T03:51:39;3.37;;;1.43;;
14092;SDS011;7123;49.468;10.992;2022-09-09T03:54:14;1.30;;;1.20;;
14092;SDS011;7123;49.468;10.992;2022-09-09T03:56:41;1.37;;;1.10;;
14092;SDS011;7123;49.468;10.992;2022-09-09T03:59:07;1.70;;;1.30;;
14092;SDS011;7123;49.468;10.992;2022-09-09T04:01:37;6.63;;;1.67;;
14092;SDS011;7123;49.468;10.992;2022-09-09T04:04:03;3.80;;;1.37;;
14092;SDS011;7123;49.468;10.992;2022-09-09T04:06:30;1.20;;;1.20;;
14092;SDS011;7123;49.468;10.992;2022-09-09T04:08:57;7.30;;;1.80;;
14092;SDS011;7123;49.468;10.992;2022-09-09T04:11:24;1.17;;;1.07;;
14092;SDS011;7123;49.468;10.992;2022-09-09T04:13:50;6.53;;;1.30;;
14092;SDS011;7123;49.468;10.992;2022-09-09T04:16:18;2.07;;;1.27;;
14092;SDS011;7123;49.468;10.992;2022-09-09T04:18:45;1.27;;;1.17;;
14092;SDS011;7123;49.468;10.992;2022-09-09T04:21:12;1.77;;;1.20;;
14092;SDS011;7123;49.468;10.992;2022-09-09T04:23:39;1.80;;;1.20;;
14092;SDS011;7123;49.468;10.992;2022-09-09T04:26:06;4.47;;;1.27;;
14092;SDS011;7123;49.468;10.992;2022-09-09T04:28:33;1.70;;;1.00;;
14092;SDS011;7123;49.468;10.992;2022-09-09T04:31:05;2.43;;;1.20;;
14092;SDS011;7123;49.468;10.992;2022-09-09T04:33:33;1.73;;;1.10;;
14092;SDS011;7123;49.468;10.992;2022-09-09T04:36:05;1.50;;;1.20;;
14092;SDS011;7123;49.468;10.992;2022-09-09T04:38:34;1.87;;;1.40;;
14092;SDS011;7123;49.468;10.992;2022-09-09T04:41:02;1.20;;;1.10;;
14092;SDS011;7123;49.468;10.992;2022-09-09T04:43:29;2.83;;;1.57;;
14092;SDS011;7123;49.468;10.992;2022-09-09T04:45:57;2.63;;;1.30;;
14092;SDS011;7123;49.468;10.992;2022-09-09T04:48:25;3.50;;;1.47;;
14092;SDS011;7123;49.468;10.992;2022-09-09T04:50:55;2.00;;;1.27;;
14092;SDS011;7123;49.468;10.992;2022-09-09T04:53:27;4.30;;;1.20;;
14092;SDS011;7123;49.468;10.992;2022-09-09T04:56:11;3.77;;;1.40;;
14092;SDS011;7123;49.468;10.992;2022-09-09T04:58:39;2.63;;;1.30;;
14092;SDS011;7123;49.468;10.992;2022-09-09T05:01:15;2.47;;;1.50;;
14092;SDS011;7123;49.468;10.992;2022-09-09T05:03:44;2.70;;;1.33;;
14092;SDS011;7123;49.468;10.992;2022-09-09T05:06:12;4.17;;;1.43;;
14092;SDS011;7123;49.468;10.992;2022-09-09T05:08:41;3.43;;;1.50;;
14092;SDS011;7123;49.468;10.992;2022-09-09T05:11:13;4.70;;;1.37;;
14092;SDS011;7123;49.468;10.992;2022-09-09T05:13:47;3.53;;;1.30;;
14092;SDS011;7123;49.468;10.992;2022-09-09T05:16:16;3.17;;;1.30;;
14092;SDS011;7123;49.468;10.992;2022-09-09T05:18:44;2.43;;;1.40;;
14092;SDS011;7123;49.468;10.992;2022-09-09T05:21:15;2.40;;;1.40;;
14092;SDS011;7123;49.468;10.992;2022-09-09T05:23:45;3.57;;;1.40;;
14092;SDS011;7123;49.468;10.992;2022-09-09T05:26:13;1.37;;;1.27;;
14092;SDS011;7123;49.468;10.992;2022-09-09T05:28:43;1.53;;;1.43;;
14092;SDS011;7123;49.468;10.992;2022-09-09T05:31:10;2.03;;;1.60;;
14092;SDS011;7123;49.468;10.992;2022-09-09T05:33:39;1.40;;;1.30;;
14092;SDS011;7123;49.468;10.992;2022-09-09T05:38:36;2.70;;;1.40;;
14092;SDS011;7123;49.468;10.992;2022-09-09T05:41:04;1.60;;;1.20;;
14092;SDS011;7123;49.468;10.992;2022-09-09T05:43:31;2.80;;;1.63;;
14092;SDS011;7123;49.468;10.992;2022-09-09T05:46:07;3.03;;;1.33;;
14092;SDS011;7123;49.468;10.992;2022-09-09T05:48:37;2.40;;;1.50;;
14092;SDS011;7123;49.468;10.992;2022-09-09T05:51:07;2.30;;;1.60;;
14092;SDS011;7123;49.468;10.992;2022-09-09T05:53:36;3.47;;;1.57;;
14092;SDS011;7123;49.468;10.992;2022-09-09T05:58:33;1.60;;;1.50;;
14092;SDS011;7123;49.468;10.992;2022-09-09T06:01:04;1.77;;;1.67;;
14092;SDS011;7123;49.468;10.992;2022-09-09T06:03:37;1.50;;;1.40;;
14092;SDS011;7123;49.468;10.992;2022-09-09T06:06:06;3.50;;;1.70;;
14092;SDS011;7123;49.468;10.992;2022-09-09T06:08:35;4.20;;;1.50;;
14092;SDS011;7123;49.468;10.992;2022-09-09T06:11:06;2.73;;;1.80;;
14092;SDS011;7123;49.468;10.992;2022-09-09T06:13:38;6.67;;;2.03;;
14092;SDS011;7123;49.468;10.992;2022-09-09T06:16:09;2.87;;;1.80;;
14092;SDS011;7123;49.468;10.992;2022-09-09T06:18:38;3.57;;;1.70;;
14092;SDS011;7123;49.468;10.992;2022-09-09T06:21:07;3.50;;;1.60;;
14092;SDS011;7123;49.468;10.992;2022-09-09T06:23:39;2.67;;;1.60;;
14092;SDS011;7123;49.468;10.992;2022-09-09T06:26:07;1.80;;;1.47;;
14092;SDS011;7123;49.468;10.992;2022-09-09T06:28:37;2.67;;;1.57;;
14092;SDS011;7123;49.468;10.992;2022-09-09T06:31:06;2.37;;;1.50;;
14092;SDS011;7123;49.468;10.992;2022-09-09T06:33:34;3.50;;;1.43;;
14092;SDS011;7123;49.468;10.992;2022-09-09T06:36:10;2.43;;;1.60;;
14092;SDS011;7123;49.468;10.992;2022-09-09T06:38:38;3.17;;;1.80;;
14092;SDS011;7123;49.468;10.992;2022-09-09T06:41:05;1.60;;;1.50;;
14092;SDS011;7123;49.468;10.992;2022-09-09T06:43:32;3.73;;;1.67;;
14092;SDS011;7123;49.468;10.992;2022-09-09T06:46:02;2.80;;;1.60;;
14092;SDS011;7123;49.468;10.992;2022-09-09T06:48:30;3.43;;;1.60;;
14092;SDS011;7123;49.468;10.992;2022-09-09T06:51:00;1.60;;;1.50;;
14092;SDS011;7123;49.468;10.992;2022-09-09T06:53:35;2.60;;;1.60;;
14092;SDS011;7123;49.468;10.992;2022-09-09T06:58:43;1.63;;;1.50;;
14092;SDS011;7123;49.468;10.992;2022-09-09T07:01:11;1.83;;;1.60;;
14092;SDS011;7123;49.468;10.992;2022-09-09T07:03:40;4.93;;;1.60;;
14092;SDS011;7123;49.468;10.992;2022-09-09T07:06:08;3.03;;;1.40;;
14092;SDS011;7123;49.468;10.992;2022-09-09T07:08:51;4.60;;;1.80;;
14092;SDS011;7123;49.468;10.992;2022-09-09T07:11:23;2.77;;;1.40;;
14092;SDS011;7123;49.468;10.992;2022-09-09T07:13:53;1.70;;;1.60;;
14092;SDS011;7123;49.468;10.992;2022-09-09T07:16:20;2.47;;;1.27;;
14092;SDS011;7123;49.468;10.992;2022-09-09T07:18:53;2.70;;;1.23;;
14092;SDS011;7123;49.468;10.992;2022-09-09T07:21:27;2.00;;;1.37;;
14092;SDS011;7123;49.468;10.992;2022-09-09T07:23:55;1.30;;;1.20;;
14092;SDS011;7123;49.468;10.992;2022-09-09T07:26:24;4.10;;;1.30;;
14092;SDS011;7123;49.468;10.992;2022-09-09T07:28:54;2.70;;;1.30;;
14092;SDS011;7123;49.468;10.992;2022-09-09T07:31:29;3.10;;;1.60;;
14092;SDS011;7123;49.468;10.992;2022-09-09T07:33:58;3.07;;;1.47;;
14092;SDS011;7123;49.468;10.992;2022-09-09T07:36:32;3.60;;;1.57;;
14092;SDS011;7123;49.468;10.992;2022-09-09T07:39:02;1.10;;;1.00;;
14092;SDS011;7123;49.468;10.992;2022-09-09T07:41:33;2.53;;;1.30;;
14092;SDS011;7123;49.468;10.992;2022-09-09T07:44:14;3.03;;;1.23;;
14092;SDS011;7123;49.468;10.992;2022-09-09T07:46:42;2.17;;;1.27;;
14092;SDS011;7123;49.468;10.992;2022-09-09T07:49:12;3.03;;;1.77;;
14092;SDS011;7123;49.468;10.992;2022-09-09T07:51:40;1.53;;;1.30;;
14092;SDS011;7123;49.468;10.992;2022-09-09T07:54:10;3.43;;;1.50;;
14092;SDS011;7123;49.468;10.992;2022-09-09T07:56:38;4.60;;;1.60;;
14092;SDS011;7123;49.468;10.992;2022-09-09T07:59:06;5.53;;;1.50;;
14092;SDS011;7123;49.468;10.992;2022-09-09T08:01:38;3.87;;;1.53;;
14092;SDS011;7123;49.468;10.992;2022-09-09T08:04:08;1.77;;;1.50;;
14092;SDS011;7123;49.468;10.992;2022-09-09T08:06:44;1.80;;;1.40;;
14092;SDS011;7123;49.468;10.992;2022-09-09T08:09:22;1.67;;;1.20;;
14092;SDS011;7123;49.468;10.992;2022-09-09T08:11:51;2.57;;;1.30;;
14092;SDS011;7123;49.468;10.992;2022-09-09T08:14:17;1.77;;;1.27;;
14092;SDS011;7123;49.468;10.992;2022-09-09T08:16:46;1.97;;;1.40;;
14092;SDS011;7123;49.468;10.992;2022-09-09T08:19:14;4.63;;;1.37;;
14092;SDS011;7123;49.468;10.992;2022-09-09T08:21:44;1.87;;;1.37;;
14092;SDS011;7123;49.468;10.992;2022-09-09T08:24:11;3.43;;;1.40;;
14092;SDS011;7123;49.468;10.992;2022-09-09T08:26:44;2.33;;;1.20;;
14092;SDS011;7123;49.468;10.992;2022-09-09T08:29:13;3.23;;;1.20;;
14092;SDS011;7123;49.468;10.992;2022-09-09T08:31:44;1.73;;;1.00;;
14092;SDS011;7123;49.468;10.992;2022-09-09T08:34:20;2.10;;;1.10;;
14092;SDS011;7123;49.468;10.992;2022-09-09T08:36:48;1.60;;;0.90;;
14092;SDS011;7123;49.468;10.992;2022-09-09T08:39:17;6.83;;;1.23;;
14092;SDS011;7123;49.468;10.992;2022-09-09T08:52:31;1.77;;;0.93;;
14092;SDS011;7123;49.468;10.992;2022-09-09T08:58:16;2.17;;;0.70;;
14092;SDS011;7123;49.468;10.992;2022-09-09T09:01:28;1.60;;;0.90;;
14092;SDS011;7123;49.468;10.992;2022-09-09T09:06:29;4.30;;;1.00;;
14092;SDS011;7123;49.468;10.992;2022-09-09T09:09:05;1.40;;;0.70;;
14092;SDS011;7123;49.468;10.992;2022-09-09T09:11:48;1.27;;;0.93;;
14092;SDS011;7123;49.468;10.992;2022-09-09T09:14:28;2.53;;;0.90;;
14092;SDS011;7123;49.468;10.992;2022-09-09T09:17:01;3.53;;;0.90;;
14092;SDS011;7123;49.468;10.992;2022-09-09T09:19:34;1.50;;;0.70;;
14092;SDS011;7123;49.468;10.992;2022-09-09T09:22:06;1.23;;;0.80;;
14092;SDS011;7123;49.468;10.992;2022-09-09T09:24:50;2.33;;;1.00;;
14092;SDS011;7123;49.468;10.992;2022-09-09T09:27:25;1.83;;;0.70;;
14092;SDS011;7123;49.468;10.992;2022-09-09T09:32:55;3.50;;;1.10;;
14092;SDS011;7123;49.468;10.992;2022-09-09T09:35:28;1.33;;;0.70;;
14092;SDS011;7123;49.468;10.992;2022-09-09T09:37:55;2.17;;;0.90;;
14092;SDS011;7123;49.468;10.992;2022-09-09T09:40:52;3.60;;;0.90;;
14092;SDS011;7123;49.468;10.992;2022-09-09T09:43:27;1.30;;;0.70;;
14092;SDS011;7123;49.468;10.992;2022-09-09T09:45:58;4.93;;;1.10;;
14092;SDS011;7123;49.468;10.992;2022-09-09T09:48:43;1.40;;;0.83;;
14092;SDS011;7123;49.468;10.992;2022-09-09T09:51:13;2.03;;;0.80;;
14092;SDS011;7123;49.468;10.992;2022-09-09T09:53:42;1.47;;;0.70;;
14092;SDS011;7123;49.468;10.992;2022-09-09T09:56:10;3.10;;;0.83;;
14092;SDS011;7123;49.468;10.992;2022-09-09T10:01:25;3.87;;;1.07;;
14092;SDS011;7123;49.468;10.992;2022-09-09T10:03:57;2.40;;;0.70;;
14092;SDS011;7123;49.468;10.992;2022-09-09T10:06:34;0.50;;;0.50;;
14092;SDS011;7123;49.468;10.992;2022-09-09T10:09:04;1.67;;;0.80;;
14092;SDS011;7123;49.468;10.992;2022-09-09T10:15:20;2.07;;;0.70;;
14092;SDS011;7123;49.468;10.992;2022-09-09T10:18:03;1.07;;;0.80;;
14092;SDS011;7123;49.468;10.992;2022-09-09T10:21:04;2.03;;;0.80;;
14092;SDS011;7123;49.468;10.992;2022-09-09T10:26:32;1.93;;;0.70;;
14092;SDS011;7123;49.468;10.992;2022-09-09T10:29:15;3.07;;;0.60;;
14092;SDS011;7123;49.468;10.992;2022-09-09T10:34:56;6.10;;;1.07;;
14092;SDS011;7123;49.468;10.992;2022-09-09T10:40:34;2.33;;;0.83;;
14092;SDS011;7123;49.468;10.992;2022-09-09T10:49:43;3.90;;;1.10;;
14092;SDS011;7123;49.468;10.992;2022-09-09T10:54:52;2.73;;;1.03;;
14092;SDS011;7123;49.468;10.992;2022-09-09T10:57:33;2.83;;;0.90;;
14092;SDS011;7123;49.468;10.992;2022-09-09T11:00:13;1.83;;;0.87;;
14092;SDS011;7123;49.468;10.992;2022-09-09T11:02:43;1.90;;;1.00;;
14092;SDS011;7123;49.468;10.992;2022-09-09T11:05:19;5.90;;;0.90;;
14092;SDS011;7123;49.468;10.992;2022-09-09T11:07:55;2.83;;;1.13;;
14092;SDS011;7123;49.468;10.992;2022-09-09T11:13:02;4.83;;;0.90;;
14092;SDS011;7123;49.468;10.992;2022-09-09T11:15:35;3.17;;;0.97;;
14092;SDS011;7123;49.468;10.992;2022-09-09T11:18:09;1.50;;;0.60;;
14092;SDS011;7123;49.468;10.992;2022-09-09T11:20:41;6.53;;;1.40;;
14092;SDS011;7123;49.468;10.992;2022-09-09T11:23:11;2.47;;;1.00;;
14092;SDS011;7123;49.468;10.992;2022-09-09T11:25:43;1.20;;;0.90;;
14092;SDS011;7123;49.468;10.992;2022-09-09T11:34:14;1.67;;;0.80;;
14092;SDS011;7123;49.468;10.992;2022-09-09T11:39:37;2.23;;;1.10;;
14092;SDS011;7123;49.468;10.992;2022-09-09T11:42:26;2.27;;;0.90;;
14092;SDS011;7123;49.468;10.992;2022-09-09T11:44:53;2.40;;;0.93;;
14092;SDS011;7123;49.468;10.992;2022-09-09T11:47:25;1.00;;;0.70;;
14092;SDS011;7123;49.468;10.992;2022-09-09T11:50:07;1.07;;;0.90;;
14092;SDS011;7123;49.468;10.992;2022-09-09T11:52:41;3.43;;;0.90;;
14092;SDS011;7123;49.468;10.992;2022-09-09T11:55:24;0.93;;;0.70;;
14092;SDS011;7123;49.468;10.992;2022-09-09T11:58:03;1.27;;;0.67;;
14092;SDS011;7123;49.468;10.992;2022-09-09T12:00:43;1.57;;;0.80;;
14092;SDS011;7123;49.468;10.992;2022-09-09T12:06:16;1.77;;;0.80;;
14092;SDS011;7123;49.468;10.992;2022-09-09T12:09:08;1.57;;;0.93;;
14092;SDS011;7123;49.468;10.992;2022-09-09T12:11:44;0.87;;;0.50;;
14092;SDS011;7123;49.468;10.992;2022-09-09T12:17:22;1.40;;;0.60;;
14092;SDS011;7123;49.468;10.992;2022-09-09T12:20:00;2.63;;;0.70;;
14092;SDS011;7123;49.468;10.992;2022-09-09T12:25:09;1.30;;;0.70;;
14092;SDS011;7123;49.468;10.992;2022-09-09T12:27:58;1.20;;;0.60;;
14092;SDS011;7123;49.468;10.992;2022-09-09T12:30:39;1.30;;;0.60;;
14092;SDS011;7123;49.468;10.992;2022-09-09T12:33:16;2.87;;;0.50;;
14092;SDS011;7123;49.468;10.992;2022-09-09T12:35:46;1.33;;;0.70;;
14092;SDS011;7123;49.468;10.992;2022-09-09T12:38:26;1.07;;;0.70;;
14092;SDS011;7123;49.468;10.992;2022-09-09T12:40:58;1.80;;;0.47;;
14092;SDS011;7123;49.468;10.992;2022-09-09T12:43:27;1.90;;;0.70;;
14092;SDS011;7123;49.468;10.992;2022-09-09T12:45:56;1.40;;;0.60;;
14092;SDS011;7123;49.468;10.992;2022-09-09T12:48:34;1.80;;;0.60;;
14092;SDS011;7123;49.468;10.992;2022-09-09T12:53:51;1.47;;;0.90;;
14092;SDS011;7123;49.468;10.992;2022-09-09T12:56:19;4.40;;;0.80;;
14092;SDS011;7123;49.468;10.992;2022-09-09T12:58:55;2.23;;;0.50;;
14092;SDS011;7123;49.468;10.992;2022-09-09T13:01:25;7.97;;;0.60;;
14092;SDS011;7123;49.468;10.992;2022-09-09T13:03:54;1.73;;;0.90;;
14092;SDS011;7123;49.468;10.992;2022-09-09T13:06:26;1.40;;;0.70;;
14092;SDS011;7123;49.468;10.992;2022-09-09T13:08:58;1.43;;;0.83;;
14092;SDS011;7123;49.468;10.992;2022-09-09T13:11:31;3.50;;;0.60;;
14092;SDS011;7123;49.468;10.992;2022-09-09T13:14:06;0.60;;;0.50;;
14092;SDS011;7123;49.468;10.992;2022-09-09T13:16:34;1.87;;;0.70;;
14092;SDS011;7123;49.468;10.992;2022-09-09T13:19:08;2.10;;;1.00;;
14092;SDS011;7123;49.468;10.992;2022-09-09T13:21:40;4.37;;;1.10;;
14092;SDS011;7123;49.468;10.992;2022-09-09T13:24:21;4.30;;;0.83;;
14092;SDS011;7123;49.468;10.992;2022-09-09T13:27:04;1.17;;;0.70;;
14092;SDS011;7123;49.468;10.992;2022-09-09T13:29:51;0.97;;;0.70;;
14092;SDS011;7123;49.468;10.992;2022-09-09T13:32:23;4.17;;;0.70;;
14092;SDS011;7123;49.468;10.992;2022-09-09T13:34:56;2.70;;;0.80;;
14092;SDS011;7123;49.468;10.992;2022-09-09T13:37:35;1.83;;;0.87;;
14092;SDS011;7123;49.468;10.992;2022-09-09T13:40:12;0.90;;;0.60;;
14092;SDS011;7123;49.468;10.992;2022-09-09T13:42:45;3.60;;;1.00;;
14092;SDS011;7123;49.468;10.992;2022-09-09T13:45:15;1.13;;;0.60;;
14092;SDS011;7123;49.468;10.992;2022-09-09T13:47:46;2.07;;;0.60;;
14092;SDS011;7123;49.468;10.992;2022-09-09T13:50:22;3.77;;;1.00;;
14092;SDS011;7123;49.468;10.992;2022-09-09T13:52:52;2.23;;;0.80;;
14092;SDS011;7123;49.468;10.992;2022-09-09T13:55:21;1.07;;;0.43;;
14092;SDS011;7123;49.468;10.992;2022-09-09T13:57:54;5.17;;;0.90;;
14092;SDS011;7123;49.468;10.992;2022-09-09T14:00:30;2.20;;;1.20;;
14092;SDS011;7123;49.468;10.992;2022-09-09T14:02:59;1.97;;;1.17;;
14092;SDS011;7123;49.468;10.992;2022-09-09T14:05:30;2.47;;;1.10;;
14092;SDS011;7123;49.468;10.992;2022-09-09T14:07:59;2.73;;;1.20;;
14092;SDS011;7123;49.468;10.992;2022-09-09T14:10:27;7.20;;;1.30;;
14092;SDS011;7123;49.468;10.992;2022-09-09T14:12:55;1.90;;;1.10;;
14092;SDS011;7123;49.468;10.992;2022-09-09T14:15:22;2.17;;;0.90;;
14092;SDS011;7123;49.468;10.992;2022-09-09T14:17:48;1.97;;;1.00;;
14092;SDS011;7123;49.468;10.992;2022-09-09T14:20:15;5.33;;;1.10;;
14092;SDS011;7123;49.468;10.992;2022-09-09T14:22:43;1.97;;;1.17;;
14092;SDS011;7123;49.468;10.992;2022-09-09T14:25:10;4.70;;;1.30;;
14092;SDS011;7123;49.468;10.992;2022-09-09T14:27:39;1.87;;;1.40;;
14092;SDS011;7123;49.468;10.992;2022-09-09T14:30:06;3.80;;;1.10;;
14092;SDS011;7123;49.468;10.992;2022-09-09T14:32:34;3.60;;;1.30;;
14092;SDS011;7123;49.468;10.992;2022-09-09T14:35:00;4.60;;;1.17;;
14092;SDS011;7123;49.468;10.992;2022-09-09T14:37:27;4.43;;;1.20;;
14092;SDS011;7123;49.468;10.992;2022-09-09T14:39:54;3.23;;;1.17;;
14092;SDS011;7123;49.468;10.992;2022-09-09T14:42:21;4.90;;;1.13;;
14092;SDS011;7123;49.468;10.992;2022-09-09T14:44:48;2.77;;;1.10;;
14092;SDS011;7123;49.468;10.992;2022-09-09T14:47:14;2.33;;;1.07;;
14092;SDS011;7123;49.468;10.992;2022-09-09T14:49:41;1.93;;;0.93;;
14092;SDS011;7123;49.468;10.992;2022-09-09T14:52:12;3.40;;;0.90;;
14092;SDS011;7123;49.468;10.992;2022-09-09T14:54:39;2.77;;;1.07;;
14092;SDS011;7123;49.468;10.992;2022-09-09T14:57:06;2.97;;;1.00;;
14092;SDS011;7123;49.468;10.992;2022-09-09T14:59:32;2.27;;;0.93;;
14092;SDS011;7123;49.468;10.992;2022-09-09T15:02:00;2.17;;;0.90;;
14092;SDS011;7123;49.468;10.992;2022-09-09T15:04:30;3.13;;;1.07;;
14092;SDS011;7123;49.468;10.992;2022-09-09T15:06:57;1.90;;;0.73;;
14092;SDS011;7123;49.468;10.992;2022-09-09T15:09:24;2.10;;;0.90;;
14092;SDS011;7123;49.468;10.992;2022-09-09T15:11:51;1.10;;;0.80;;
14092;SDS011;7123;49.468;10.992;2022-09-09T15:14:17;1.80;;;0.90;;
14092;SDS011;7123;49.468;10.992;2022-09-09T15:16:50;3.20;;;0.90;;
14092;SDS011;7123;49.468;10.992;2022-09-09T15:19:17;2.90;;;0.80;;
14092;SDS011;7123;49.468;10.992;2022-09-09T15:21:43;2.80;;;0.90;;
14092;SDS011;7123;49.468;10.992;2022-09-09T15:24:10;0.93;;;0.70;;
14092;SDS011;7123;49.468;10.992;2022-09-09T15:26:38;2.57;;;0.80;;
14092;SDS011;7123;49.468;10.992;2022-09-09T15:29:05;4.03;;;0.90;;
14092;SDS011;7123;49.468;10.992;2022-09-09T15:31:34;4.20;;;0.70;;
14092;SDS011;7123;49.468;10.992;2022-09-09T15:34:07;5.00;;;0.90;;
14092;SDS011;7123;49.468;10.992;2022-09-09T15:36:35;3.43;;;0.70;;
14092;SDS011;7123;49.468;10.992;2022-09-09T15:39:03;1.77;;;0.60;;
14092;SDS011;7123;49.468;10.992;2022-09-09T15:41:33;0.50;;;0.50;;
14092;SDS011;7123;49.468;10.992;2022-09-09T15:44:02;5.60;;;1.10;;
14092;SDS011;7123;49.468;10.992;2022-09-09T15:49:08;0.53;;;0.40;;
14092;SDS011;7123;49.468;10.992;2022-09-09T15:51:38;1.13;;;0.60;;
14092;SDS011;7123;49.468;10.992;2022-09-09T15:54:14;0.83;;;0.60;;
14092;SDS011;7123;49.468;10.992;2022-09-09T15:56:47;1.63;;;0.30;;
14092;SDS011;7123;49.468;10.992;2022-09-09T15:59:25;0.97;;;0.40;;
14092;SDS011;7123;49.468;10.992;2022-09-09T16:01:57;1.60;;;0.70;;
14092;SDS011;7123;49.468;10.992;2022-09-09T16:04:34;0.70;;;0.50;;
14092;SDS011;7123;49.468;10.992;2022-09-09T16:07:04;1.10;;;0.50;;
14092;SDS011;7123;49.468;10.992;2022-09-09T16:09:36;1.17;;;0.50;;
14092;SDS011;7123;49.468;10.992;2022-09-09T16:12:05;0.37;;;0.37;;
14092;SDS011;7123;49.468;10.992;2022-09-09T16:14:37;0.47;;;0.40;;
14092;SDS011;7123;49.468;10.992;2022-09-09T16:17:06;0.57;;;0.40;;
14092;SDS011;7123;49.468;10.992;2022-09-09T16:19:33;1.20;;;0.52;;
14092;SDS011;7123;49.468;10.992;2022-09-09T16:22:01;1.15;;;0.40;;
14092;SDS011;7123;49.468;10.992;2022-09-09T16:24:30;1.03;;;0.40;;
14092;SDS011;7123;49.468;10.992;2022-09-09T16:26:59;1.73;;;0.30;;
14092;SDS011;7123;49.468;10.992;2022-09-09T16:29:28;0.65;;;0.40;;
14092;SDS011;7123;49.468;10.992;2022-09-09T16:31:57;0.40;;;0.40;;
14092;SDS011;7123;49.468;10.992;2022-09-09T16:34:29;1.17;;;0.25;;
14092;SDS011;7123;49.468;10.992;2022-09-09T16:36:56;0.73;;;0.57;;
14092;SDS011;7123;49.468;10.992;2022-09-09T16:39:23;0.50;;;0.40;;
14092;SDS011;7123;49.468;10.992;2022-09-09T16:41:50;0.68;;;0.40;;
14092;SDS011;7123;49.468;10.992;2022-09-09T16:44:18;2.00;;;0.50;;
14092;SDS011;7123;49.468;10.992;2022-09-09T16:46:47;1.00;;;0.40;;
14092;SDS011;7123;49.468;10.992;2022-09-09T16:49:23;0.47;;;0.47;;
14092;SDS011;7123;49.468;10.992;2022-09-09T16:51:57;1.33;;;0.70;;
14092;SDS011;7123;49.468;10.992;2022-09-09T16:54:25;1.77;;;0.70;;
14092;SDS011;7123;49.468;10.992;2022-09-09T16:56:53;0.75;;;0.75;;
14092;SDS011;7123;49.468;10.992;2022-09-09T16:59:20;0.95;;;0.60;;
14092;SDS011;7123;49.468;10.992;2022-09-09T17:01:49;0.45;;;0.45;;
14092;SDS011;7123;49.468;10.992;2022-09-09T17:04:18;6.20;;;1.02;;
14092;SDS011;7123;49.468;10.992;2022-09-09T17:06:47;0.82;;;0.60;;
14092;SDS011;7123;49.468;10.992;2022-09-09T17:09:17;2.30;;;0.80;;
14092;SDS011;7123;49.468;10.992;2022-09-09T17:11:44;2.08;;;1.90;;
14092;SDS011;7123;49.468;10.992;2022-09-09T17:14:13;1.23;;;0.80;;
14092;SDS011;7123;49.468;10.992;2022-09-09T17:16:41;1.83;;;1.38;;